Terminal Aerodrome Forecast
Issued by NWS

Home | Current Version | Previous Version | Text Only | Print | Product List | Glossary On
Versions: 1 2 3 4 5 6 7 8 9 10 11 12 13 14 15 16
929
FTUS41 KILN 221614 AAA
TAFLUK
TAF AMD
KLUK 221614Z 2216/2312 23010KT P6SM -SHRA VCTS BKN035CB
     FM221700 24011G21KT P6SM -TSRA BKN035CB
      TEMPO 2217/2220 4SM TSRA OVC025CB
     FM222200 29008KT P6SM BKN040
     FM230700 35007KT P6SM SCT250=

USA.gov is the U.S. government's official web portal to all federal, state and local government web resources and services.